Terminal Aerodrome Forecast
Issued by NWS Lake Charles, LA

Home | Current Version | Previous Version | Text Only | Print | Product List | Glossary On
Versions: 1 2 3 4 5 6 7 8 9 10 11 12 13 14 15 16 17
815
FTUS44 KLCH 181735
TAFAEX
TAF
KAEX 181735Z 1818/1918 12007KT P6SM VCTS SCT015 BKN035CB
      TEMPO 1818/1822 4SM SHRA BKN015
     FM190100 15008KT 5SM BR VCSH BKN015
     FM190800 16007KT 3SM -SHRA VCTS OVC005CB=

USA.gov is the U.S. government's official web portal to all federal, state and local government web resources and services.